sensor_id;sensor_type;location;lat;lon;timestamp;P1;durP1;ratioP1;P2;durP2;ratioP2
23596;SDS011;40226;50.874;4.394;2023-05-01T00:01:22;7.68;;;5.28;;
23596;SDS011;40226;50.874;4.394;2023-05-01T00:03:48;8.93;;;5.55;;
23596;SDS011;40226;50.874;4.394;2023-05-01T00:06:14;12.77;;;7.22;;
23596;SDS011;40226;50.874;4.394;2023-05-01T00:08:40;7.15;;;4.90;;
23596;SDS011;40226;50.874;4.394;2023-05-01T00:11:05;7.82;;;5.25;;
23596;SDS011;40226;50.874;4.394;2023-05-01T00:13:36;6.05;;;4.80;;
23596;SDS011;40226;50.874;4.394;2023-05-01T00:16:06;5.35;;;4.65;;
23596;SDS011;40226;50.874;4.394;2023-05-01T00:18:33;5.50;;;4.80;;
23596;SDS011;40226;50.874;4.394;2023-05-01T00:20:58;11.18;;;5.47;;
23596;SDS011;40226;50.874;4.394;2023-05-01T00:23:24;6.47;;;4.95;;
23596;SDS011;40226;50.874;4.394;2023-05-01T00:25:50;7.90;;;5.47;;
23596;SDS011;40226;50.874;4.394;2023-05-01T00:28:17;6.90;;;5.22;;
23596;SDS011;40226;50.874;4.394;2023-05-01T00:30:43;8.15;;;5.43;;
23596;SDS011;40226;50.874;4.394;2023-05-01T00:33:09;8.07;;;5.07;;
23596;SDS011;40226;50.874;4.394;2023-05-01T00:35:35;7.68;;;5.85;;
23596;SDS011;40226;50.874;4.394;2023-05-01T00:38:01;8.32;;;5.00;;
23596;SDS011;40226;50.874;4.394;2023-05-01T00:40:27;8.77;;;5.00;;
23596;SDS011;40226;50.874;4.394;2023-05-01T00:42:53;6.65;;;4.68;;
23596;SDS011;40226;50.874;4.394;2023-05-01T00:45:18;10.77;;;5.60;;
23596;SDS011;40226;50.874;4.394;2023-05-01T00:47:44;13.27;;;5.93;;
23596;SDS011;40226;50.874;4.394;2023-05-01T00:50:11;14.20;;;6.85;;
23596;SDS011;40226;50.874;4.394;2023-05-01T00:52:37;8.77;;;5.82;;
23596;SDS011;40226;50.874;4.394;2023-05-01T00:55:03;9.18;;;5.72;;
23596;SDS011;40226;50.874;4.394;2023-05-01T00:57:31;8.85;;;5.53;;
23596;SDS011;40226;50.874;4.394;2023-05-01T00:59:58;7.88;;;5.50;;
23596;SDS011;40226;50.874;4.394;2023-05-01T01:02:23;8.23;;;5.68;;
23596;SDS011;40226;50.874;4.394;2023-05-01T01:04:51;8.45;;;6.07;;
23596;SDS011;40226;50.874;4.394;2023-05-01T01:15:34;8.05;;;6.07;;
23596;SDS011;40226;50.874;4.394;2023-05-01T01:20:49;6.53;;;5.40;;
23596;SDS011;40226;50.874;4.394;2023-05-01T01:23:52;8.50;;;5.88;;
23596;SDS011;40226;50.874;4.394;2023-05-01T01:27:28;10.23;;;6.40;;
23596;SDS011;40226;50.874;4.394;2023-05-01T01:29:49;7.80;;;6.25;;
23596;SDS011;40226;50.874;4.394;2023-05-01T01:35:18;11.65;;;6.43;;
23596;SDS011;40226;50.874;4.394;2023-05-01T01:37:50;8.23;;;6.15;;
23596;SDS011;40226;50.874;4.394;2023-05-01T01:40:32;10.02;;;6.10;;
23596;SDS011;40226;50.874;4.394;2023-05-01T01:43:03;8.77;;;6.25;;
23596;SDS011;40226;50.874;4.394;2023-05-01T01:45:41;6.85;;;5.82;;
23596;SDS011;40226;50.874;4.394;2023-05-01T01:48:13;10.32;;;6.47;;
23596;SDS011;40226;50.874;4.394;2023-05-01T01:50:42;7.78;;;6.07;;
23596;SDS011;40226;50.874;4.394;2023-05-01T01:53:10;7.78;;;5.97;;
23596;SDS011;40226;50.874;4.394;2023-05-01T01:55:39;10.18;;;6.40;;
23596;SDS011;40226;50.874;4.394;2023-05-01T01:58:08;11.02;;;5.95;;
23596;SDS011;40226;50.874;4.394;2023-05-01T02:00:36;10.50;;;6.40;;
23596;SDS011;40226;50.874;4.394;2023-05-01T02:03:05;10.07;;;6.60;;
23596;SDS011;40226;50.874;4.394;2023-05-01T02:05:32;11.90;;;6.55;;
23596;SDS011;40226;50.874;4.394;2023-05-01T02:08:01;10.00;;;6.30;;
23596;SDS011;40226;50.874;4.394;2023-05-01T02:10:29;9.88;;;6.57;;
23596;SDS011;40226;50.874;4.394;2023-05-01T02:12:56;10.48;;;6.43;;
23596;SDS011;40226;50.874;4.394;2023-05-01T02:15:23;10.30;;;6.75;;
23596;SDS011;40226;50.874;4.394;2023-05-01T02:17:51;9.20;;;6.13;;
23596;SDS011;40226;50.874;4.394;2023-05-01T02:20:18;7.88;;;6.32;;
23596;SDS011;40226;50.874;4.394;2023-05-01T02:22:45;10.60;;;6.45;;
23596;SDS011;40226;50.874;4.394;2023-05-01T02:25:12;7.00;;;6.13;;
23596;SDS011;40226;50.874;4.394;2023-05-01T02:27:41;8.35;;;6.00;;
23596;SDS011;40226;50.874;4.394;2023-05-01T02:30:26;8.70;;;5.80;;
23596;SDS011;40226;50.874;4.394;2023-05-01T02:32:51;8.10;;;6.28;;
23596;SDS011;40226;50.874;4.394;2023-05-01T02:35:17;10.45;;;6.85;;
23596;SDS011;40226;50.874;4.394;2023-05-01T02:37:43;11.80;;;7.57;;
23596;SDS011;40226;50.874;4.394;2023-05-01T02:40:14;9.25;;;6.68;;
23596;SDS011;40226;50.874;4.394;2023-05-01T02:42:40;9.65;;;6.43;;
23596;SDS011;40226;50.874;4.394;2023-05-01T02:45:08;8.55;;;6.80;;
23596;SDS011;40226;50.874;4.394;2023-05-01T02:47:41;14.18;;;7.70;;
23596;SDS011;40226;50.874;4.394;2023-05-01T02:50:09;9.13;;;6.90;;
23596;SDS011;40226;50.874;4.394;2023-05-01T02:52:37;12.05;;;7.32;;
23596;SDS011;40226;50.874;4.394;2023-05-01T02:55:03;8.13;;;6.88;;
23596;SDS011;40226;50.874;4.394;2023-05-01T02:57:31;9.25;;;6.65;;
23596;SDS011;40226;50.874;4.394;2023-05-01T02:59:57;10.38;;;6.78;;
23596;SDS011;40226;50.874;4.394;2023-05-01T03:02:22;10.57;;;7.40;;
23596;SDS011;40226;50.874;4.394;2023-05-01T03:04:48;8.75;;;7.18;;
23596;SDS011;40226;50.874;4.394;2023-05-01T03:07:14;9.15;;;7.07;;
23596;SDS011;40226;50.874;4.394;2023-05-01T03:09:39;8.98;;;7.20;;
23596;SDS011;40226;50.874;4.394;2023-05-01T03:12:05;9.20;;;7.22;;
23596;SDS011;40226;50.874;4.394;2023-05-01T03:14:31;11.30;;;6.85;;
23596;SDS011;40226;50.874;4.394;2023-05-01T03:16:57;16.55;;;7.63;;
23596;SDS011;40226;50.874;4.394;2023-05-01T03:19:22;9.48;;;7.18;;
23596;SDS011;40226;50.874;4.394;2023-05-01T03:21:48;12.02;;;6.95;;
23596;SDS011;40226;50.874;4.394;2023-05-01T03:24:14;8.75;;;6.72;;
23596;SDS011;40226;50.874;4.394;2023-05-01T03:26:39;10.73;;;7.22;;
23596;SDS011;40226;50.874;4.394;2023-05-01T03:29:05;10.85;;;7.30;;
23596;SDS011;40226;50.874;4.394;2023-05-01T03:31:31;12.15;;;7.35;;
23596;SDS011;40226;50.874;4.394;2023-05-01T03:33:56;13.55;;;7.00;;
23596;SDS011;40226;50.874;4.394;2023-05-01T03:36:22;15.40;;;7.28;;
23596;SDS011;40226;50.874;4.394;2023-05-01T03:38:49;13.00;;;7.25;;
23596;SDS011;40226;50.874;4.394;2023-05-01T03:41:14;10.52;;;7.03;;
23596;SDS011;40226;50.874;4.394;2023-05-01T03:43:41;11.30;;;7.68;;
23596;SDS011;40226;50.874;4.394;2023-05-01T03:46:06;13.02;;;8.07;;
23596;SDS011;40226;50.874;4.394;2023-05-01T03:48:32;10.93;;;7.55;;
23596;SDS011;40226;50.874;4.394;2023-05-01T03:50:58;11.52;;;7.82;;
23596;SDS011;40226;50.874;4.394;2023-05-01T03:53:23;10.75;;;7.05;;
23596;SDS011;40226;50.874;4.394;2023-05-01T03:55:49;10.15;;;7.25;;
23596;SDS011;40226;50.874;4.394;2023-05-01T03:58:15;10.75;;;7.88;;
23596;SDS011;40226;50.874;4.394;2023-05-01T04:00:41;13.95;;;8.25;;
23596;SDS011;40226;50.874;4.394;2023-05-01T04:03:07;13.30;;;7.85;;
23596;SDS011;40226;50.874;4.394;2023-05-01T04:05:32;12.65;;;7.93;;
23596;SDS011;40226;50.874;4.394;2023-05-01T04:07:58;13.45;;;8.25;;
23596;SDS011;40226;50.874;4.394;2023-05-01T04:10:23;12.82;;;7.57;;
23596;SDS011;40226;50.874;4.394;2023-05-01T04:12:49;12.18;;;7.47;;
23596;SDS011;40226;50.874;4.394;2023-05-01T04:15:15;11.38;;;8.50;;
23596;SDS011;40226;50.874;4.394;2023-05-01T04:17:41;11.98;;;7.85;;
23596;SDS011;40226;50.874;4.394;2023-05-01T04:20:07;11.52;;;8.52;;
23596;SDS011;40226;50.874;4.394;2023-05-01T04:22:34;11.80;;;7.75;;
23596;SDS011;40226;50.874;4.394;2023-05-01T04:25:00;11.70;;;7.82;;
23596;SDS011;40226;50.874;4.394;2023-05-01T04:27:26;13.32;;;8.40;;
23596;SDS011;40226;50.874;4.394;2023-05-01T04:29:52;13.52;;;8.38;;
23596;SDS011;40226;50.874;4.394;2023-05-01T04:32:17;10.68;;;7.88;;
23596;SDS011;40226;50.874;4.394;2023-05-01T04:34:43;12.02;;;8.32;;
23596;SDS011;40226;50.874;4.394;2023-05-01T04:37:09;15.32;;;8.82;;
23596;SDS011;40226;50.874;4.394;2023-05-01T04:39:35;13.45;;;8.88;;
23596;SDS011;40226;50.874;4.394;2023-05-01T04:42:01;12.85;;;8.05;;
23596;SDS011;40226;50.874;4.394;2023-05-01T04:44:27;9.45;;;8.05;;
23596;SDS011;40226;50.874;4.394;2023-05-01T04:46:53;11.77;;;7.93;;
23596;SDS011;40226;50.874;4.394;2023-05-01T04:49:20;13.93;;;8.45;;
23596;SDS011;40226;50.874;4.394;2023-05-01T04:51:46;11.68;;;8.10;;
23596;SDS011;40226;50.874;4.394;2023-05-01T04:54:12;14.02;;;8.52;;
23596;SDS011;40226;50.874;4.394;2023-05-01T04:56:38;13.00;;;8.57;;
23596;SDS011;40226;50.874;4.394;2023-05-01T04:59:03;12.10;;;8.10;;
23596;SDS011;40226;50.874;4.394;2023-05-01T05:01:29;16.60;;;8.50;;
23596;SDS011;40226;50.874;4.394;2023-05-01T05:03:56;12.55;;;8.60;;
23596;SDS011;40226;50.874;4.394;2023-05-01T05:06:21;12.57;;;9.13;;
23596;SDS011;40226;50.874;4.394;2023-05-01T05:08:47;14.73;;;8.85;;
23596;SDS011;40226;50.874;4.394;2023-05-01T05:11:16;11.55;;;8.00;;
23596;SDS011;40226;50.874;4.394;2023-05-01T05:13:44;16.23;;;8.73;;
23596;SDS011;40226;50.874;4.394;2023-05-01T05:16:10;12.63;;;8.30;;
23596;SDS011;40226;50.874;4.394;2023-05-01T05:18:36;13.27;;;8.55;;
23596;SDS011;40226;50.874;4.394;2023-05-01T05:21:03;11.73;;;8.45;;
23596;SDS011;40226;50.874;4.394;2023-05-01T05:23:29;12.95;;;8.23;;
23596;SDS011;40226;50.874;4.394;2023-05-01T05:25:55;14.07;;;8.65;;
23596;SDS011;40226;50.874;4.394;2023-05-01T05:28:26;13.50;;;8.27;;
23596;SDS011;40226;50.874;4.394;2023-05-01T05:30:52;13.15;;;8.38;;
23596;SDS011;40226;50.874;4.394;2023-05-01T05:33:19;13.70;;;8.43;;
23596;SDS011;40226;50.874;4.394;2023-05-01T05:35:44;11.27;;;7.88;;
23596;SDS011;40226;50.874;4.394;2023-05-01T05:38:10;12.68;;;8.10;;
23596;SDS011;40226;50.874;4.394;2023-05-01T05:40:36;12.60;;;7.93;;
23596;SDS011;40226;50.874;4.394;2023-05-01T05:43:01;11.73;;;8.15;;
23596;SDS011;40226;50.874;4.394;2023-05-01T05:45:27;8.90;;;7.72;;
23596;SDS011;40226;50.874;4.394;2023-05-01T05:47:53;14.48;;;8.25;;
23596;SDS011;40226;50.874;4.394;2023-05-01T05:50:18;14.60;;;8.13;;
23596;SDS011;40226;50.874;4.394;2023-05-01T05:52:44;12.60;;;8.20;;
23596;SDS011;40226;50.874;4.394;2023-05-01T05:55:10;12.25;;;8.05;;
23596;SDS011;40226;50.874;4.394;2023-05-01T05:57:35;11.07;;;8.05;;
23596;SDS011;40226;50.874;4.394;2023-05-01T06:00:02;13.93;;;8.25;;
23596;SDS011;40226;50.874;4.394;2023-05-01T06:02:29;13.38;;;8.55;;
23596;SDS011;40226;50.874;4.394;2023-05-01T06:04:56;13.57;;;9.00;;
23596;SDS011;40226;50.874;4.394;2023-05-01T06:07:22;12.55;;;9.50;;
23596;SDS011;40226;50.874;4.394;2023-05-01T06:09:49;12.35;;;8.90;;
23596;SDS011;40226;50.874;4.394;2023-05-01T06:12:15;12.52;;;8.70;;
23596;SDS011;40226;50.874;4.394;2023-05-01T06:14:40;12.57;;;9.05;;
23596;SDS011;40226;50.874;4.394;2023-05-01T06:17:06;12.10;;;9.50;;
23596;SDS011;40226;50.874;4.394;2023-05-01T06:19:33;11.88;;;9.82;;
23596;SDS011;40226;50.874;4.394;2023-05-01T06:21:59;10.88;;;9.15;;
23596;SDS011;40226;50.874;4.394;2023-05-01T06:24:26;16.23;;;10.00;;
23596;SDS011;40226;50.874;4.394;2023-05-01T06:26:52;12.60;;;10.07;;
23596;SDS011;40226;50.874;4.394;2023-05-01T06:29:18;13.38;;;9.95;;
23596;SDS011;40226;50.874;4.394;2023-05-01T06:31:43;12.43;;;10.32;;
23596;SDS011;40226;50.874;4.394;2023-05-01T06:34:09;13.63;;;11.20;;
23596;SDS011;40226;50.874;4.394;2023-05-01T06:36:35;13.00;;;10.43;;
23596;SDS011;40226;50.874;4.394;2023-05-01T06:39:01;14.18;;;11.15;;
23596;SDS011;40226;50.874;4.394;2023-05-01T06:41:26;14.20;;;10.95;;
23596;SDS011;40226;50.874;4.394;2023-05-01T06:43:52;13.77;;;11.05;;
23596;SDS011;40226;50.874;4.394;2023-05-01T06:46:18;15.10;;;11.93;;
23596;SDS011;40226;50.874;4.394;2023-05-01T06:48:43;19.30;;;13.15;;
23596;SDS011;40226;50.874;4.394;2023-05-01T06:51:09;17.60;;;13.30;;
23596;SDS011;40226;50.874;4.394;2023-05-01T06:53:35;18.88;;;14.32;;
23596;SDS011;40226;50.874;4.394;2023-05-01T06:56:01;18.85;;;16.08;;
23596;SDS011;40226;50.874;4.394;2023-05-01T06:58:27;21.52;;;17.20;;
23596;SDS011;40226;50.874;4.394;2023-05-01T07:00:52;21.20;;;17.27;;
23596;SDS011;40226;50.874;4.394;2023-05-01T07:03:18;24.80;;;19.10;;
23596;SDS011;40226;50.874;4.394;2023-05-01T07:05:44;27.77;;;22.02;;
23596;SDS011;40226;50.874;4.394;2023-05-01T07:08:09;30.27;;;23.63;;
23596;SDS011;40226;50.874;4.394;2023-05-01T07:10:35;33.13;;;24.95;;
23596;SDS011;40226;50.874;4.394;2023-05-01T07:13:01;33.63;;;26.20;;
23596;SDS011;40226;50.874;4.394;2023-05-01T07:15:27;30.52;;;25.40;;
23596;SDS011;40226;50.874;4.394;2023-05-01T07:17:53;32.50;;;25.98;;
23596;SDS011;40226;50.874;4.394;2023-05-01T07:20:20;35.58;;;28.23;;
23596;SDS011;40226;50.874;4.394;2023-05-01T07:22:45;36.60;;;27.92;;
23596;SDS011;40226;50.874;4.394;2023-05-01T07:25:11;39.60;;;29.45;;
23596;SDS011;40226;50.874;4.394;2023-05-01T07:27:37;40.00;;;31.17;;
23596;SDS011;40226;50.874;4.394;2023-05-01T07:30:04;39.85;;;30.77;;
23596;SDS011;40226;50.874;4.394;2023-05-01T07:32:30;40.83;;;30.80;;
23596;SDS011;40226;50.874;4.394;2023-05-01T07:34:57;44.80;;;32.10;;
23596;SDS011;40226;50.874;4.394;2023-05-01T07:37:22;40.42;;;32.85;;
23596;SDS011;40226;50.874;4.394;2023-05-01T07:39:49;41.88;;;31.20;;
23596;SDS011;40226;50.874;4.394;2023-05-01T07:42:14;46.30;;;33.78;;
23596;SDS011;40226;50.874;4.394;2023-05-01T07:44:40;44.92;;;32.53;;
23596;SDS011;40226;50.874;4.394;2023-05-01T07:47:05;45.28;;;32.80;;
23596;SDS011;40226;50.874;4.394;2023-05-01T07:49:35;45.22;;;34.20;;
23596;SDS011;40226;50.874;4.394;2023-05-01T07:52:02;46.25;;;33.15;;
23596;SDS011;40226;50.874;4.394;2023-05-01T07:54:29;47.45;;;33.75;;
23596;SDS011;40226;50.874;4.394;2023-05-01T07:56:55;45.30;;;33.17;;
23596;SDS011;40226;50.874;4.394;2023-05-01T07:59:21;48.97;;;35.78;;
23596;SDS011;40226;50.874;4.394;2023-05-01T08:01:47;51.88;;;36.15;;
23596;SDS011;40226;50.874;4.394;2023-05-01T08:04:12;48.58;;;36.38;;
23596;SDS011;40226;50.874;4.394;2023-05-01T08:06:38;51.00;;;36.55;;
23596;SDS011;40226;50.874;4.394;2023-05-01T08:09:04;48.72;;;35.95;;
23596;SDS011;40226;50.874;4.394;2023-05-01T08:11:30;49.90;;;35.80;;
23596;SDS011;40226;50.874;4.394;2023-05-01T08:13:57;49.72;;;35.10;;
23596;SDS011;40226;50.874;4.394;2023-05-01T08:16:23;51.88;;;36.55;;
23596;SDS011;40226;50.874;4.394;2023-05-01T08:18:49;53.30;;;37.45;;
23596;SDS011;40226;50.874;4.394;2023-05-01T08:21:14;55.67;;;36.78;;
23596;SDS011;40226;50.874;4.394;2023-05-01T08:23:40;51.22;;;35.17;;
23596;SDS011;40226;50.874;4.394;2023-05-01T08:26:05;50.35;;;35.95;;
23596;SDS011;40226;50.874;4.394;2023-05-01T08:28:33;53.42;;;37.65;;
23596;SDS011;40226;50.874;4.394;2023-05-01T08:30:59;54.45;;;37.72;;
23596;SDS011;40226;50.874;4.394;2023-05-01T08:33:25;55.03;;;38.22;;
23596;SDS011;40226;50.874;4.394;2023-05-01T08:35:51;55.15;;;39.05;;
23596;SDS011;40226;50.874;4.394;2023-05-01T08:38:16;55.83;;;38.60;;
23596;SDS011;40226;50.874;4.394;2023-05-01T08:40:43;58.97;;;38.90;;
23596;SDS011;40226;50.874;4.394;2023-05-01T08:43:14;60.75;;;40.15;;
23596;SDS011;40226;50.874;4.394;2023-05-01T08:45:40;58.60;;;39.50;;
23596;SDS011;40226;50.874;4.394;2023-05-01T08:48:07;57.53;;;39.13;;
23596;SDS011;40226;50.874;4.394;2023-05-01T08:50:35;58.35;;;39.85;;
23596;SDS011;40226;50.874;4.394;2023-05-01T08:53:03;59.10;;;39.50;;
23596;SDS011;40226;50.874;4.394;2023-05-01T08:55:30;57.33;;;39.05;;
23596;SDS011;40226;50.874;4.394;2023-05-01T08:57:58;55.92;;;39.28;;
23596;SDS011;40226;50.874;4.394;2023-05-01T09:00:24;57.83;;;39.85;;
23596;SDS011;40226;50.874;4.394;2023-05-01T09:02:51;57.90;;;40.90;;
23596;SDS011;40226;50.874;4.394;2023-05-01T09:05:18;68.97;;;44.55;;
23596;SDS011;40226;50.874;4.394;2023-05-01T09:07:45;63.97;;;42.65;;
23596;SDS011;40226;50.874;4.394;2023-05-01T09:10:14;65.10;;;42.90;;
23596;SDS011;40226;50.874;4.394;2023-05-01T09:12:50;69.95;;;45.35;;
23596;SDS011;40226;50.874;4.394;2023-05-01T09:15:27;63.42;;;41.90;;
23596;SDS011;40226;50.874;4.394;2023-05-01T09:17:54;66.70;;;44.60;;
23596;SDS011;40226;50.874;4.394;2023-05-01T09:20:32;70.38;;;45.42;;
23596;SDS011;40226;50.874;4.394;2023-05-01T09:23:02;67.28;;;43.85;;
23596;SDS011;40226;50.874;4.394;2023-05-01T09:25:27;64.53;;;42.58;;
23596;SDS011;40226;50.874;4.394;2023-05-01T09:27:53;64.68;;;43.03;;
23596;SDS011;40226;50.874;4.394;2023-05-01T09:30:31;66.82;;;43.83;;
23596;SDS011;40226;50.874;4.394;2023-05-01T09:33:03;65.68;;;42.67;;
23596;SDS011;40226;50.874;4.394;2023-05-01T09:35:46;67.95;;;43.70;;
23596;SDS011;40226;50.874;4.394;2023-05-01T09:38:23;70.22;;;45.03;;
23596;SDS011;40226;50.874;4.394;2023-05-01T09:40:50;72.15;;;45.85;;
23596;SDS011;40226;50.874;4.394;2023-05-01T09:43:27;68.93;;;45.72;;
23596;SDS011;40226;50.874;4.394;2023-05-01T09:46:06;66.10;;;43.35;;
23596;SDS011;40226;50.874;4.394;2023-05-01T09:48:34;65.72;;;43.42;;
23596;SDS011;40226;50.874;4.394;2023-05-01T09:51:03;61.42;;;41.80;;
23596;SDS011;40226;50.874;4.394;2023-05-01T09:53:51;64.95;;;43.60;;
23596;SDS011;40226;50.874;4.394;2023-05-01T09:56:18;60.10;;;41.80;;
23596;SDS011;40226;50.874;4.394;2023-05-01T09:58:51;62.97;;;42.08;;
23596;SDS011;40226;50.874;4.394;2023-05-01T10:01:35;66.72;;;41.28;;
23596;SDS011;40226;50.874;4.394;2023-05-01T10:04:12;61.95;;;42.08;;
23596;SDS011;40226;50.874;4.394;2023-05-01T10:07:15;63.00;;;41.25;;
23596;SDS011;40226;50.874;4.394;2023-05-01T10:09:42;58.75;;;39.67;;
23596;SDS011;40226;50.874;4.394;2023-05-01T10:12:07;59.30;;;39.53;;
23596;SDS011;40226;50.874;4.394;2023-05-01T10:14:48;59.80;;;40.63;;
23596;SDS011;40226;50.874;4.394;2023-05-01T10:17:18;62.05;;;39.67;;
23596;SDS011;40226;50.874;4.394;2023-05-01T10:19:44;60.47;;;38.63;;
23596;SDS011;40226;50.874;4.394;2023-05-01T10:22:11;54.70;;;37.47;;
23596;SDS011;40226;50.874;4.394;2023-05-01T10:24:43;59.65;;;37.55;;
23596;SDS011;40226;50.874;4.394;2023-05-01T10:27:29;53.45;;;37.65;;
23596;SDS011;40226;50.874;4.394;2023-05-01T10:29:54;54.80;;;36.13;;
23596;SDS011;40226;50.874;4.394;2023-05-01T10:32:21;52.10;;;35.17;;
23596;SDS011;40226;50.874;4.394;2023-05-01T10:34:56;49.38;;;35.58;;
23596;SDS011;40226;50.874;4.394;2023-05-01T10:37:33;48.83;;;35.25;;
23596;SDS011;40226;50.874;4.394;2023-05-01T10:43:19;53.70;;;35.72;;
23596;SDS011;40226;50.874;4.394;2023-05-01T10:53:37;52.10;;;36.03;;
23596;SDS011;40226;50.874;4.394;2023-05-01T10:56:04;52.72;;;36.63;;
23596;SDS011;40226;50.874;4.394;2023-05-01T10:58:57;52.63;;;36.72;;
23596;SDS011;40226;50.874;4.394;2023-05-01T11:01:27;53.28;;;36.35;;
23596;SDS011;40226;50.874;4.394;2023-05-01T11:09:37;46.55;;;33.42;;
23596;SDS011;40226;50.874;4.394;2023-05-01T11:12:07;47.10;;;34.38;;
23596;SDS011;40226;50.874;4.394;2023-05-01T11:22:33;41.33;;;29.35;;
23596;SDS011;40226;50.874;4.394;2023-05-01T11:25:00;37.55;;;29.23;;
23596;SDS011;40226;50.874;4.394;2023-05-01T11:27:29;39.70;;;28.13;;
23596;SDS011;40226;50.874;4.394;2023-05-01T11:29:57;41.53;;;28.52;;
23596;SDS011;40226;50.874;4.394;2023-05-01T11:32:25;38.15;;;27.02;;
23596;SDS011;40226;50.874;4.394;2023-05-01T11:34:52;32.67;;;24.30;;
23596;SDS011;40226;50.874;4.394;2023-05-01T11:37:18;34.53;;;25.85;;
23596;SDS011;40226;50.874;4.394;2023-05-01T11:42:28;32.33;;;23.30;;
23596;SDS011;40226;50.874;4.394;2023-05-01T11:45:09;31.58;;;22.45;;
23596;SDS011;40226;50.874;4.394;2023-05-01T11:47:35;29.00;;;21.75;;
23596;SDS011;40226;50.874;4.394;2023-05-01T11:50:02;32.78;;;21.80;;
23596;SDS011;40226;50.874;4.394;2023-05-01T11:52:28;31.15;;;19.92;;
23596;SDS011;40226;50.874;4.394;2023-05-01T11:54:54;34.95;;;22.42;;
23596;SDS011;40226;50.874;4.394;2023-05-01T11:57:19;28.30;;;19.67;;
23596;SDS011;40226;50.874;4.394;2023-05-01T11:59:45;32.20;;;22.10;;
23596;SDS011;40226;50.874;4.394;2023-05-01T12:02:18;33.47;;;20.77;;
23596;SDS011;40226;50.874;4.394;2023-05-01T12:04:44;31.50;;;19.38;;
23596;SDS011;40226;50.874;4.394;2023-05-01T12:07:20;29.00;;;20.73;;
23596;SDS011;40226;50.874;4.394;2023-05-01T12:09:47;26.25;;;18.73;;
23596;SDS011;40226;50.874;4.394;2023-05-01T12:12:14;27.38;;;20.13;;
23596;SDS011;40226;50.874;4.394;2023-05-01T12:14:40;26.27;;;20.08;;
23596;SDS011;40226;50.874;4.394;2023-05-01T12:17:07;24.88;;;18.65;;
23596;SDS011;40226;50.874;4.394;2023-05-01T12:19:44;21.02;;;17.33;;
23596;SDS011;40226;50.874;4.394;2023-05-01T12:22:12;24.40;;;17.92;;
23596;SDS011;40226;50.874;4.394;2023-05-01T12:24:49;27.00;;;19.63;;
23596;SDS011;40226;50.874;4.394;2023-05-01T12:27:18;28.85;;;20.90;;
23596;SDS011;40226;50.874;4.394;2023-05-01T12:29:44;35.38;;;23.10;;
23596;SDS011;40226;50.874;4.394;2023-05-01T12:32:12;31.17;;;22.83;;
23596;SDS011;40226;50.874;4.394;2023-05-01T12:34:39;30.00;;;22.38;;
23596;SDS011;40226;50.874;4.394;2023-05-01T12:37:05;30.65;;;23.20;;
23596;SDS011;40226;50.874;4.394;2023-05-01T12:39:35;34.78;;;24.48;;
23596;SDS011;40226;50.874;4.394;2023-05-01T12:42:12;32.35;;;24.52;;
23596;SDS011;40226;50.874;4.394;2023-05-01T12:44:39;34.13;;;24.48;;
23596;SDS011;40226;50.874;4.394;2023-05-01T12:47:06;32.03;;;23.70;;
23596;SDS011;40226;50.874;4.394;2023-05-01T12:49:33;30.30;;;23.05;;
23596;SDS011;40226;50.874;4.394;2023-05-01T12:52:01;31.98;;;24.40;;
23596;SDS011;40226;50.874;4.394;2023-05-01T12:54:28;29.90;;;23.38;;
23596;SDS011;40226;50.874;4.394;2023-05-01T12:57:09;30.48;;;24.90;;
23596;SDS011;40226;50.874;4.394;2023-05-01T12:59:38;31.08;;;24.92;;
23596;SDS011;40226;50.874;4.394;2023-05-01T13:02:09;31.63;;;25.33;;
23596;SDS011;40226;50.874;4.394;2023-05-01T13:04:36;35.92;;;26.90;;
23596;SDS011;40226;50.874;4.394;2023-05-01T13:07:14;35.38;;;25.52;;
23596;SDS011;40226;50.874;4.394;2023-05-01T13:09:51;32.67;;;26.45;;
23596;SDS011;40226;50.874;4.394;2023-05-01T13:12:17;33.95;;;26.10;;
23596;SDS011;40226;50.874;4.394;2023-05-01T13:14:43;34.38;;;26.13;;
23596;SDS011;40226;50.874;4.394;2023-05-01T13:17:10;33.45;;;24.95;;
23596;SDS011;40226;50.874;4.394;2023-05-01T13:19:36;36.83;;;26.38;;
23596;SDS011;40226;50.874;4.394;2023-05-01T13:22:03;36.83;;;26.98;;
23596;SDS011;40226;50.874;4.394;2023-05-01T13:24:39;36.42;;;27.35;;
23596;SDS011;40226;50.874;4.394;2023-05-01T13:27:07;38.95;;;27.52;;
23596;SDS011;40226;50.874;4.394;2023-05-01T13:29:33;38.53;;;27.65;;
23596;SDS011;40226;50.874;4.394;2023-05-01T13:31:59;36.63;;;27.05;;
23596;SDS011;40226;50.874;4.394;2023-05-01T13:34:28;43.13;;;28.15;;
23596;SDS011;40226;50.874;4.394;2023-05-01T13:36:56;45.00;;;31.27;;
23596;SDS011;40226;50.874;4.394;2023-05-01T13:39:22;38.40;;;29.33;;
23596;SDS011;40226;50.874;4.394;2023-05-01T13:41:49;40.90;;;28.73;;
23596;SDS011;40226;50.874;4.394;2023-05-01T13:44:17;37.90;;;28.50;;
23596;SDS011;40226;50.874;4.394;2023-05-01T13:46:44;32.17;;;25.30;;
23596;SDS011;40226;50.874;4.394;2023-05-01T13:49:10;30.63;;;24.40;;
23596;SDS011;40226;50.874;4.394;2023-05-01T13:51:39;29.67;;;24.33;;
23596;SDS011;40226;50.874;4.394;2023-05-01T13:54:07;34.78;;;23.58;;
23596;SDS011;40226;50.874;4.394;2023-05-01T13:56:35;32.28;;;24.88;;
23596;SDS011;40226;50.874;4.394;2023-05-01T13:59:06;32.85;;;23.25;;
23596;SDS011;40226;50.874;4.394;2023-05-01T14:01:39;34.92;;;24.23;;
23596;SDS011;40226;50.874;4.394;2023-05-01T14:04:14;33.38;;;25.08;;
23596;SDS011;40226;50.874;4.394;2023-05-01T14:06:42;30.10;;;24.20;;
23596;SDS011;40226;50.874;4.394;2023-05-01T14:09:08;30.90;;;24.83;;
23596;SDS011;40226;50.874;4.394;2023-05-01T14:11:40;31.10;;;22.90;;
23596;SDS011;40226;50.874;4.394;2023-05-01T14:14:09;27.33;;;20.30;;
23596;SDS011;40226;50.874;4.394;2023-05-01T14:16:36;27.75;;;20.67;;
23596;SDS011;40226;50.874;4.394;2023-05-01T14:21:42;24.65;;;19.67;;
23596;SDS011;40226;50.874;4.394;2023-05-01T14:24:08;27.02;;;21.45;;
23596;SDS011;40226;50.874;4.394;2023-05-01T14:26:35;31.17;;;21.80;;
23596;SDS011;40226;50.874;4.394;2023-05-01T14:29:05;26.05;;;21.05;;
23596;SDS011;40226;50.874;4.394;2023-05-01T14:31:33;27.13;;;20.48;;
23596;SDS011;40226;50.874;4.394;2023-05-01T14:34:16;25.95;;;20.38;;
23596;SDS011;40226;50.874;4.394;2023-05-01T14:36:44;28.53;;;20.93;;
23596;SDS011;40226;50.874;4.394;2023-05-01T14:39:10;30.15;;;23.27;;
23596;SDS011;40226;50.874;4.394;2023-05-01T14:41:40;31.40;;;23.40;;
23596;SDS011;40226;50.874;4.394;2023-05-01T14:47:30;29.23;;;19.45;;
23596;SDS011;40226;50.874;4.394;2023-05-01T14:49:56;29.60;;;20.98;;
23596;SDS011;40226;50.874;4.394;2023-05-01T14:52:22;27.15;;;22.77;;
23596;SDS011;40226;50.874;4.394;2023-05-01T14:54:47;29.50;;;23.25;;
23596;SDS011;40226;50.874;4.394;2023-05-01T14:57:13;36.17;;;25.60;;
23596;SDS011;40226;50.874;4.394;2023-05-01T14:59:39;32.90;;;23.67;;
23596;SDS011;40226;50.874;4.394;2023-05-01T15:02:13;28.35;;;22.42;;
23596;SDS011;40226;50.874;4.394;2023-05-01T15:04:38;29.65;;;22.00;;
23596;SDS011;40226;50.874;4.394;2023-05-01T15:07:08;27.17;;;22.83;;
23596;SDS011;40226;50.874;4.394;2023-05-01T15:09:34;31.50;;;24.10;;
23596;SDS011;40226;50.874;4.394;2023-05-01T15:12:00;30.65;;;23.10;;
23596;SDS011;40226;50.874;4.394;2023-05-01T15:14:27;31.85;;;23.15;;
23596;SDS011;40226;50.874;4.394;2023-05-01T15:16:52;31.67;;;23.95;;
23596;SDS011;40226;50.874;4.394;2023-05-01T15:19:18;34.85;;;26.45;;
23596;SDS011;40226;50.874;4.394;2023-05-01T15:21:46;38.22;;;27.95;;